sensor_id;sensor_type;location;lat;lon;timestamp;pressure;altitude;pressure_sealevel;temperature;humidity
42411;BME280;28056;51.112;0.984;2023-12-29T00:00:12;99818.16;;;8.68;100.00
42411;BME280;28056;51.112;0.984;2023-12-29T00:02:40;99820.10;;;8.91;100.00
42411;BME280;28056;51.112;0.984;2023-12-29T00:05:08;99827.32;;;8.22;100.00
42411;BME280;28056;51.112;0.984;2023-12-29T00:07:35;99820.07;;;8.20;100.00
42411;BME280;28056;51.112;0.984;2023-12-29T00:10:03;99825.81;;;9.30;100.00
42411;BME280;28056;51.112;0.984;2023-12-29T00:12:31;99832.16;;;8.05;100.00
42411;BME280;28056;51.112;0.984;2023-12-29T00:14:59;99830.40;;;8.72;100.00
42411;BME280;28056;51.112;0.984;2023-12-29T00:17:26;99822.06;;;8.43;100.00
42411;BME280;28056;51.112;0.984;2023-12-29T00:19:54;99833.14;;;9.04;100.00
42411;BME280;28056;51.112;0.984;2023-12-29T00:22:21;99813.73;;;9.10;100.00
42411;BME280;28056;51.112;0.984;2023-12-29T00:24:48;99804.92;;;8.35;100.00
42411;BME280;28056;51.112;0.984;2023-12-29T00:27:15;99816.38;;;8.46;100.00
42411;BME280;28056;51.112;0.984;2023-12-29T00:29:43;99815.38;;;8.22;100.00
42411;BME280;28056;51.112;0.984;2023-12-29T00:32:11;99812.55;;;8.56;100.00
42411;BME280;28056;51.112;0.984;2023-12-29T00:34:38;99814.97;;;8.05;100.00
42411;BME280;28056;51.112;0.984;2023-12-29T00:37:07;99813.88;;;8.76;100.00
42411;BME280;28056;51.112;0.984;2023-12-29T00:39:35;99817.70;;;9.13;100.00
42411;BME280;28056;51.112;0.984;2023-12-29T00:42:03;99818.10;;;8.99;100.00
42411;BME280;28056;51.112;0.984;2023-12-29T00:44:30;99812.78;;;9.32;100.00
42411;BME280;28056;51.112;0.984;2023-12-29T00:46:58;99803.05;;;8.89;100.00
42411;BME280;28056;51.112;0.984;2023-12-29T00:49:25;99820.79;;;8.43;100.00
42411;BME280;28056;51.112;0.984;2023-12-29T00:51:53;99811.51;;;9.36;100.00
42411;BME280;28056;51.112;0.984;2023-12-29T00:54:21;99811.23;;;8.55;100.00
42411;BME280;28056;51.112;0.984;2023-12-29T00:56:49;99812.77;;;9.62;100.00
42411;BME280;28056;51.112;0.984;2023-12-29T00:59:17;99806.77;;;9.24;100.00
42411;BME280;28056;51.112;0.984;2023-12-29T01:04:54;99817.32;;;9.37;100.00
42411;BME280;28056;51.112;0.984;2023-12-29T01:07:22;99821.96;;;8.75;100.00
42411;BME280;28056;51.112;0.984;2023-12-29T01:09:49;99827.12;;;7.67;100.00
42411;BME280;28056;51.112;0.984;2023-12-29T01:12:16;99827.89;;;8.56;100.00
42411;BME280;28056;51.112;0.984;2023-12-29T01:14:44;99828.26;;;9.90;100.00
42411;BME280;28056;51.112;0.984;2023-12-29T01:17:12;99825.16;;;9.01;100.00
42411;BME280;28056;51.112;0.984;2023-12-29T01:19:39;99824.18;;;8.33;100.00
42411;BME280;28056;51.112;0.984;2023-12-29T01:22:07;99833.11;;;9.24;100.00
42411;BME280;28056;51.112;0.984;2023-12-29T01:24:35;99828.66;;;8.77;100.00
42411;BME280;28056;51.112;0.984;2023-12-29T01:27:02;99832.33;;;9.49;100.00
42411;BME280;28056;51.112;0.984;2023-12-29T01:29:30;99834.90;;;8.14;100.00
42411;BME280;28056;51.112;0.984;2023-12-29T01:32:03;99843.74;;;7.78;100.00
42411;BME280;28056;51.112;0.984;2023-12-29T01:34:31;99837.72;;;7.81;100.00
42411;BME280;28056;51.112;0.984;2023-12-29T01:36:59;99838.63;;;9.00;100.00
42411;BME280;28056;51.112;0.984;2023-12-29T01:39:26;99841.35;;;8.68;100.00
42411;BME280;28056;51.112;0.984;2023-12-29T01:41:55;99849.01;;;9.52;100.00
42411;BME280;28056;51.112;0.984;2023-12-29T01:44:25;99832.95;;;8.31;100.00
42411;BME280;28056;51.112;0.984;2023-12-29T01:46:55;99834.41;;;8.69;100.00
42411;BME280;28056;51.112;0.984;2023-12-29T01:49:23;99829.52;;;9.41;100.00
42411;BME280;28056;51.112;0.984;2023-12-29T01:51:53;99825.55;;;9.70;100.00
42411;BME280;28056;51.112;0.984;2023-12-29T01:54:22;99828.70;;;9.16;100.00
42411;BME280;28056;51.112;0.984;2023-12-29T01:56:50;99843.54;;;9.98;100.00
42411;BME280;28056;51.112;0.984;2023-12-29T01:59:20;99820.24;;;9.98;100.00
42411;BME280;28056;51.112;0.984;2023-12-29T02:01:47;99824.21;;;10.07;100.00
42411;BME280;28056;51.112;0.984;2023-12-29T02:04:16;99834.88;;;10.23;100.00
42411;BME280;28056;51.112;0.984;2023-12-29T02:06:44;99821.87;;;10.40;100.00
42411;BME280;28056;51.112;0.984;2023-12-29T02:09:13;99823.52;;;10.04;100.00
42411;BME280;28056;51.112;0.984;2023-12-29T02:11:40;99829.98;;;9.99;100.00
42411;BME280;28056;51.112;0.984;2023-12-29T02:14:08;99837.53;;;9.06;100.00
42411;BME280;28056;51.112;0.984;2023-12-29T02:16:40;99820.66;;;8.65;100.00
42411;BME280;28056;51.112;0.984;2023-12-29T02:19:21;99819.66;;;10.06;100.00
42411;BME280;28056;51.112;0.984;2023-12-29T02:21:51;99829.94;;;10.05;100.00
42411;BME280;28056;51.112;0.984;2023-12-29T02:24:19;99824.02;;;9.74;100.00
42411;BME280;28056;51.112;0.984;2023-12-29T02:26:53;99830.01;;;9.91;100.00
42411;BME280;28056;51.112;0.984;2023-12-29T02:29:25;99822.83;;;9.86;100.00
42411;BME280;28056;51.112;0.984;2023-12-29T02:31:54;99817.02;;;10.60;100.00
42411;BME280;28056;51.112;0.984;2023-12-29T02:34:28;99819.90;;;9.29;100.00
42411;BME280;28056;51.112;0.984;2023-12-29T02:36:56;99824.46;;;10.34;100.00
42411;BME280;28056;51.112;0.984;2023-12-29T02:39:25;99820.51;;;9.84;100.00
42411;BME280;28056;51.112;0.984;2023-12-29T02:41:53;99820.37;;;10.20;100.00
42411;BME280;28056;51.112;0.984;2023-12-29T02:44:20;99817.45;;;10.19;100.00
42411;BME280;28056;51.112;0.984;2023-12-29T02:46:47;99819.60;;;10.08;100.00
42411;BME280;28056;51.112;0.984;2023-12-29T02:49:15;99819.47;;;10.47;100.00
42411;BME280;28056;51.112;0.984;2023-12-29T02:51:43;99817.45;;;8.73;100.00
42411;BME280;28056;51.112;0.984;2023-12-29T02:54:10;99819.76;;;10.72;100.00
42411;BME280;28056;51.112;0.984;2023-12-29T02:56:38;99788.77;;;10.60;100.00
42411;BME280;28056;51.112;0.984;2023-12-29T02:59:05;99790.60;;;10.20;100.00
42411;BME280;28056;51.112;0.984;2023-12-29T03:01:32;99786.45;;;10.91;98.85
42411;BME280;28056;51.112;0.984;2023-12-29T03:04:01;99784.51;;;10.85;99.70
42411;BME280;28056;51.112;0.984;2023-12-29T03:06:28;99789.96;;;11.16;96.93
42411;BME280;28056;51.112;0.984;2023-12-29T03:08:56;99796.46;;;11.02;97.61
42411;BME280;28056;51.112;0.984;2023-12-29T03:11:29;99795.30;;;10.34;100.00
42411;BME280;28056;51.112;0.984;2023-12-29T03:13:56;99778.53;;;11.20;97.63
42411;BME280;28056;51.112;0.984;2023-12-29T03:16:23;99782.02;;;10.94;96.83
42411;BME280;28056;51.112;0.984;2023-12-29T03:18:51;99782.49;;;11.04;96.83
42411;BME280;28056;51.112;0.984;2023-12-29T03:21:18;99768.78;;;11.65;95.15
42411;BME280;28056;51.112;0.984;2023-12-29T03:23:46;99759.23;;;12.01;92.65
42411;BME280;28056;51.112;0.984;2023-12-29T03:26:14;99752.01;;;11.57;95.81
42411;BME280;28056;51.112;0.984;2023-12-29T03:28:41;99746.75;;;11.50;96.82
42411;BME280;28056;51.112;0.984;2023-12-29T03:31:09;99750.51;;;11.03;98.95
42411;BME280;28056;51.112;0.984;2023-12-29T03:33:37;99752.77;;;11.56;98.74
42411;BME280;28056;51.112;0.984;2023-12-29T03:36:05;99756.59;;;11.23;100.00
42411;BME280;28056;51.112;0.984;2023-12-29T03:38:32;99751.07;;;11.53;98.44
42411;BME280;28056;51.112;0.984;2023-12-29T03:41:00;99747.99;;;11.59;100.00
42411;BME280;28056;51.112;0.984;2023-12-29T03:43:28;99745.29;;;10.95;100.00
42411;BME280;28056;51.112;0.984;2023-12-29T03:45:55;99752.64;;;10.85;100.00
42411;BME280;28056;51.112;0.984;2023-12-29T03:48:23;99748.74;;;10.98;100.00
42411;BME280;28056;51.112;0.984;2023-12-29T03:50:51;99746.39;;;11.20;100.00
42411;BME280;28056;51.112;0.984;2023-12-29T03:53:19;99740.44;;;10.75;100.00
42411;BME280;28056;51.112;0.984;2023-12-29T03:55:46;99744.59;;;11.39;100.00
42411;BME280;28056;51.112;0.984;2023-12-29T03:58:14;99740.40;;;10.96;100.00
42411;BME280;28056;51.112;0.984;2023-12-29T04:00:41;99738.19;;;10.32;100.00
42411;BME280;28056;51.112;0.984;2023-12-29T04:03:09;99744.59;;;11.33;100.00
42411;BME280;28056;51.112;0.984;2023-12-29T04:05:36;99743.73;;;10.71;100.00
42411;BME280;28056;51.112;0.984;2023-12-29T04:08:05;99752.27;;;11.13;100.00
42411;BME280;28056;51.112;0.984;2023-12-29T04:10:32;99748.43;;;11.64;100.00
42411;BME280;28056;51.112;0.984;2023-12-29T04:13:10;99743.32;;;11.92;99.81
42411;BME280;28056;51.112;0.984;2023-12-29T04:15:37;99741.45;;;11.63;100.00
42411;BME280;28056;51.112;0.984;2023-12-29T04:18:05;99734.89;;;11.11;100.00
42411;BME280;28056;51.112;0.984;2023-12-29T04:20:32;99731.06;;;10.59;100.00
42411;BME280;28056;51.112;0.984;2023-12-29T04:23:00;99733.51;;;10.43;100.00
42411;BME280;28056;51.112;0.984;2023-12-29T04:25:28;99728.90;;;10.39;100.00
42411;BME280;28056;51.112;0.984;2023-12-29T04:27:55;99729.23;;;10.48;100.00
42411;BME280;28056;51.112;0.984;2023-12-29T04:30:23;99728.95;;;10.89;100.00
42411;BME280;28056;51.112;0.984;2023-12-29T04:32:51;99727.86;;;10.21;100.00
42411;BME280;28056;51.112;0.984;2023-12-29T04:35:18;99734.78;;;10.53;100.00
42411;BME280;28056;51.112;0.984;2023-12-29T04:37:46;99730.94;;;9.91;100.00
42411;BME280;28056;51.112;0.984;2023-12-29T04:40:13;99723.50;;;9.16;100.00
42411;BME280;28056;51.112;0.984;2023-12-29T04:42:41;99714.67;;;9.92;100.00
42411;BME280;28056;51.112;0.984;2023-12-29T04:45:09;99712.77;;;9.24;100.00
42411;BME280;28056;51.112;0.984;2023-12-29T04:47:36;99703.38;;;10.52;100.00
42411;BME280;28056;51.112;0.984;2023-12-29T04:50:05;99705.88;;;10.47;100.00
42411;BME280;28056;51.112;0.984;2023-12-29T04:52:32;99702.39;;;10.43;100.00
42411;BME280;28056;51.112;0.984;2023-12-29T04:55:00;99687.12;;;11.00;100.00
42411;BME280;28056;51.112;0.984;2023-12-29T04:57:28;99680.44;;;11.40;100.00
42411;BME280;28056;51.112;0.984;2023-12-29T04:59:55;99684.10;;;11.08;100.00
42411;BME280;28056;51.112;0.984;2023-12-29T05:02:23;99695.65;;;11.51;100.00
42411;BME280;28056;51.112;0.984;2023-12-29T05:04:51;99702.20;;;10.92;100.00
42411;BME280;28056;51.112;0.984;2023-12-29T05:07:19;99717.93;;;10.46;100.00
42411;BME280;28056;51.112;0.984;2023-12-29T05:09:46;99706.78;;;10.19;100.00
42411;BME280;28056;51.112;0.984;2023-12-29T05:12:15;99711.94;;;9.99;100.00
42411;BME280;28056;51.112;0.984;2023-12-29T05:14:42;99702.48;;;9.91;100.00
42411;BME280;28056;51.112;0.984;2023-12-29T05:17:15;99702.88;;;10.96;100.00
42411;BME280;28056;51.112;0.984;2023-12-29T05:19:43;99698.81;;;10.87;100.00
42411;BME280;28056;51.112;0.984;2023-12-29T05:22:10;99698.85;;;10.90;100.00
42411;BME280;28056;51.112;0.984;2023-12-29T05:24:40;99684.75;;;10.94;100.00
42411;BME280;28056;51.112;0.984;2023-12-29T05:27:07;99677.57;;;11.18;98.36
42411;BME280;28056;51.112;0.984;2023-12-29T05:29:35;99671.32;;;11.16;98.16
42411;BME280;28056;51.112;0.984;2023-12-29T05:32:04;99669.45;;;11.75;95.25
42411;BME280;28056;51.112;0.984;2023-12-29T05:34:31;99683.75;;;11.14;97.86
42411;BME280;28056;51.112;0.984;2023-12-29T05:36:59;99692.65;;;11.17;98.30
42411;BME280;28056;51.112;0.984;2023-12-29T05:39:27;99691.91;;;11.14;99.24
42411;BME280;28056;51.112;0.984;2023-12-29T05:41:55;99685.63;;;10.84;100.00
42411;BME280;28056;51.112;0.984;2023-12-29T05:44:23;99692.74;;;10.69;100.00
42411;BME280;28056;51.112;0.984;2023-12-29T05:46:51;99700.96;;;10.39;100.00
42411;BME280;28056;51.112;0.984;2023-12-29T05:49:18;99704.35;;;11.05;98.85
42411;BME280;28056;51.112;0.984;2023-12-29T05:51:46;99709.94;;;11.12;99.82
42411;BME280;28056;51.112;0.984;2023-12-29T05:54:14;99712.98;;;11.18;98.03
42411;BME280;28056;51.112;0.984;2023-12-29T05:56:41;99706.77;;;11.08;99.20
42411;BME280;28056;51.112;0.984;2023-12-29T05:59:09;99703.38;;;10.77;98.22
42411;BME280;28056;51.112;0.984;2023-12-29T06:01:36;99701.79;;;10.89;98.48
42411;BME280;28056;51.112;0.984;2023-12-29T06:04:04;99704.77;;;11.41;98.11
42411;BME280;28056;51.112;0.984;2023-12-29T06:06:31;99705.65;;;10.94;99.96
42411;BME280;28056;51.112;0.984;2023-12-29T06:09:05;99707.32;;;10.90;100.00
42411;BME280;28056;51.112;0.984;2023-12-29T06:11:32;99708.19;;;11.07;98.79
42411;BME280;28056;51.112;0.984;2023-12-29T06:14:00;99707.87;;;10.66;99.65
42411;BME280;28056;51.112;0.984;2023-12-29T06:16:27;99707.62;;;11.13;99.15
42411;BME280;28056;51.112;0.984;2023-12-29T06:18:55;99710.66;;;11.33;96.77
42411;BME280;28056;51.112;0.984;2023-12-29T06:21:23;99709.61;;;10.61;100.00
42411;BME280;28056;51.112;0.984;2023-12-29T06:23:50;99707.23;;;10.82;99.74
42411;BME280;28056;51.112;0.984;2023-12-29T06:26:19;99713.39;;;10.34;99.83
42411;BME280;28056;51.112;0.984;2023-12-29T06:28:48;99713.95;;;10.45;100.00
42411;BME280;28056;51.112;0.984;2023-12-29T06:31:17;99719.36;;;10.20;100.00
42411;BME280;28056;51.112;0.984;2023-12-29T06:33:44;99729.04;;;10.31;100.00
42411;BME280;28056;51.112;0.984;2023-12-29T06:36:17;99730.56;;;10.59;99.95
42411;BME280;28056;51.112;0.984;2023-12-29T06:38:45;99732.87;;;9.46;100.00
42411;BME280;28056;51.112;0.984;2023-12-29T06:41:13;99738.82;;;9.85;100.00
42411;BME280;28056;51.112;0.984;2023-12-29T06:43:40;99756.18;;;9.66;100.00
42411;BME280;28056;51.112;0.984;2023-12-29T06:46:08;99750.04;;;9.19;100.00
42411;BME280;28056;51.112;0.984;2023-12-29T06:48:36;99755.58;;;9.44;100.00
42411;BME280;28056;51.112;0.984;2023-12-29T06:51:04;99756.56;;;8.89;100.00
42411;BME280;28056;51.112;0.984;2023-12-29T06:53:37;99751.75;;;8.39;100.00
42411;BME280;28056;51.112;0.984;2023-12-29T06:56:05;99760.23;;;9.10;100.00
42411;BME280;28056;51.112;0.984;2023-12-29T06:58:33;99768.73;;;9.68;100.00
42411;BME280;28056;51.112;0.984;2023-12-29T07:01:00;99767.83;;;10.06;100.00
42411;BME280;28056;51.112;0.984;2023-12-29T07:03:28;99774.48;;;7.73;100.00
42411;BME280;28056;51.112;0.984;2023-12-29T07:05:56;99772.03;;;7.89;100.00
42411;BME280;28056;51.112;0.984;2023-12-29T07:08:24;99761.71;;;7.65;100.00
42411;BME280;28056;51.112;0.984;2023-12-29T07:10:51;99778.81;;;7.32;100.00
42411;BME280;28056;51.112;0.984;2023-12-29T07:13:19;99773.97;;;8.11;100.00
42411;BME280;28056;51.112;0.984;2023-12-29T07:15:47;99768.94;;;7.62;100.00
42411;BME280;28056;51.112;0.984;2023-12-29T07:18:15;99771.49;;;7.35;100.00
42411;BME280;28056;51.112;0.984;2023-12-29T07:20:43;99777.78;;;7.90;100.00
42411;BME280;28056;51.112;0.984;2023-12-29T07:23:11;99780.11;;;7.92;100.00
42411;BME280;28056;51.112;0.984;2023-12-29T07:25:39;99779.10;;;8.12;100.00
42411;BME280;28056;51.112;0.984;2023-12-29T07:28:06;99789.29;;;8.13;100.00
42411;BME280;28056;51.112;0.984;2023-12-29T07:30:34;99787.38;;;7.32;100.00
42411;BME280;28056;51.112;0.984;2023-12-29T07:33:02;99790.49;;;7.33;100.00
42411;BME280;28056;51.112;0.984;2023-12-29T07:35:29;99802.48;;;7.21;100.00
42411;BME280;28056;51.112;0.984;2023-12-29T07:37:57;99794.16;;;7.48;100.00
42411;BME280;28056;51.112;0.984;2023-12-29T07:40:25;99802.23;;;8.33;100.00
42411;BME280;28056;51.112;0.984;2023-12-29T07:42:53;99803.37;;;7.96;100.00
42411;BME280;28056;51.112;0.984;2023-12-29T07:45:20;99804.62;;;7.66;100.00
42411;BME280;28056;51.112;0.984;2023-12-29T07:47:48;99802.38;;;8.18;100.00
42411;BME280;28056;51.112;0.984;2023-12-29T07:50:16;99806.35;;;8.01;100.00
42411;BME280;28056;51.112;0.984;2023-12-29T07:52:44;99809.29;;;8.21;100.00
42411;BME280;28056;51.112;0.984;2023-12-29T07:55:12;99809.73;;;7.82;100.00
42411;BME280;28056;51.112;0.984;2023-12-29T07:57:39;99806.52;;;8.29;100.00
42411;BME280;28056;51.112;0.984;2023-12-29T08:00:08;99805.17;;;8.09;100.00
42411;BME280;28056;51.112;0.984;2023-12-29T08:02:35;99805.27;;;8.01;100.00
42411;BME280;28056;51.112;0.984;2023-12-29T08:05:03;99808.44;;;7.89;100.00
42411;BME280;28056;51.112;0.984;2023-12-29T08:07:30;99806.68;;;8.78;100.00
42411;BME280;28056;51.112;0.984;2023-12-29T08:10:04;99798.28;;;7.94;100.00
42411;BME280;28056;51.112;0.984;2023-12-29T08:12:31;99802.82;;;8.51;100.00
42411;BME280;28056;51.112;0.984;2023-12-29T08:14:59;99802.55;;;8.69;100.00
42411;BME280;28056;51.112;0.984;2023-12-29T08:17:27;99799.25;;;8.30;100.00
42411;BME280;28056;51.112;0.984;2023-12-29T08:19:54;99798.21;;;7.68;100.00
42411;BME280;28056;51.112;0.984;2023-12-29T08:22:22;99792.37;;;8.09;100.00
42411;BME280;28056;51.112;0.984;2023-12-29T08:24:49;99798.20;;;8.56;100.00
42411;BME280;28056;51.112;0.984;2023-12-29T08:27:23;99800.06;;;8.38;100.00
42411;BME280;28056;51.112;0.984;2023-12-29T08:29:51;99798.11;;;8.59;100.00
42411;BME280;28056;51.112;0.984;2023-12-29T08:32:19;99797.35;;;8.27;100.00
42411;BME280;28056;51.112;0.984;2023-12-29T08:34:46;99799.59;;;8.63;100.00
42411;BME280;28056;51.112;0.984;2023-12-29T08:37:14;99803.91;;;8.15;100.00
42411;BME280;28056;51.112;0.984;2023-12-29T08:39:42;99800.06;;;8.63;100.00
42411;BME280;28056;51.112;0.984;2023-12-29T08:42:10;99802.75;;;8.27;100.00
42411;BME280;28056;51.112;0.984;2023-12-29T08:44:37;99800.23;;;8.22;100.00
42411;BME280;28056;51.112;0.984;2023-12-29T08:47:05;99809.96;;;8.10;100.00
42411;BME280;28056;51.112;0.984;2023-12-29T08:49:32;99816.10;;;8.34;100.00
42411;BME280;28056;51.112;0.984;2023-12-29T08:52:00;99807.01;;;8.24;100.00
42411;BME280;28056;51.112;0.984;2023-12-29T08:54:27;99818.26;;;8.24;100.00
42411;BME280;28056;51.112;0.984;2023-12-29T08:56:55;99818.63;;;8.65;100.00
42411;BME280;28056;51.112;0.984;2023-12-29T08:59:23;99819.87;;;8.35;100.00
42411;BME280;28056;51.112;0.984;2023-12-29T09:01:51;99820.69;;;8.28;100.00
42411;BME280;28056;51.112;0.984;2023-12-29T09:04:18;99822.76;;;8.26;100.00
42411;BME280;28056;51.112;0.984;2023-12-29T09:06:46;99826.91;;;8.88;100.00
42411;BME280;28056;51.112;0.984;2023-12-29T09:09:14;99829.64;;;8.00;100.00
42411;BME280;28056;51.112;0.984;2023-12-29T09:11:42;99836.14;;;8.90;100.00
42411;BME280;28056;51.112;0.984;2023-12-29T09:14:10;99836.28;;;8.59;100.00
42411;BME280;28056;51.112;0.984;2023-12-29T09:16:37;99837.16;;;8.92;100.00
42411;BME280;28056;51.112;0.984;2023-12-29T09:19:05;99839.22;;;8.78;100.00
42411;BME280;28056;51.112;0.984;2023-12-29T09:21:32;99838.88;;;9.00;100.00
42411;BME280;28056;51.112;0.984;2023-12-29T09:23:59;99834.84;;;8.59;100.00
42411;BME280;28056;51.112;0.984;2023-12-29T09:26:27;99838.16;;;9.44;100.00
42411;BME280;28056;51.112;0.984;2023-12-29T09:28:55;99847.47;;;8.94;100.00
42411;BME280;28056;51.112;0.984;2023-12-29T09:31:23;99843.73;;;9.05;100.00
42411;BME280;28056;51.112;0.984;2023-12-29T09:33:50;99850.56;;;9.48;100.00
42411;BME280;28056;51.112;0.984;2023-12-29T09:36:17;99854.18;;;9.69;100.00
42411;BME280;28056;51.112;0.984;2023-12-29T09:38:45;99855.00;;;8.57;100.00
42411;BME280;28056;51.112;0.984;2023-12-29T09:41:14;99859.63;;;9.42;100.00
42411;BME280;28056;51.112;0.984;2023-12-29T09:43:43;99852.68;;;9.07;100.00
42411;BME280;28056;51.112;0.984;2023-12-29T09:46:14;99855.91;;;9.41;100.00
42411;BME280;28056;51.112;0.984;2023-12-29T09:48:45;99862.83;;;9.91;100.00
42411;BME280;28056;51.112;0.984;2023-12-29T09:51:14;99859.35;;;8.44;100.00
42411;BME280;28056;51.112;0.984;2023-12-29T09:53:42;99869.67;;;9.40;100.00
42411;BME280;28056;51.112;0.984;2023-12-29T09:56:10;99869.00;;;9.61;100.00
42411;BME280;28056;51.112;0.984;2023-12-29T09:58:38;99865.05;;;8.65;100.00
42411;BME280;28056;51.112;0.984;2023-12-29T10:01:06;99867.19;;;9.12;100.00
42411;BME280;28056;51.112;0.984;2023-12-29T10:03:33;99863.85;;;9.17;100.00
42411;BME280;28056;51.112;0.984;2023-12-29T10:06:03;99865.90;;;9.36;100.00
42411;BME280;28056;51.112;0.984;2023-12-29T10:08:34;99866.58;;;8.86;100.00
42411;BME280;28056;51.112;0.984;2023-12-29T10:11:06;99863.86;;;9.17;100.00
42411;BME280;28056;51.112;0.984;2023-12-29T10:13:35;99865.69;;;9.02;100.00
42411;BME280;28056;51.112;0.984;2023-12-29T10:16:08;99863.32;;;8.71;100.00
42411;BME280;28056;51.112;0.984;2023-12-29T10:18:47;99859.87;;;9.35;100.00
42411;BME280;28056;51.112;0.984;2023-12-29T10:21:26;99866.28;;;9.56;100.00
42411;BME280;28056;51.112;0.984;2023-12-29T10:23:58;99865.28;;;8.75;100.00
42411;BME280;28056;51.112;0.984;2023-12-29T10:26:30;99878.30;;;9.27;100.00
42411;BME280;28056;51.112;0.984;2023-12-29T10:28:58;99877.07;;;8.91;100.00
42411;BME280;28056;51.112;0.984;2023-12-29T10:31:27;99869.13;;;8.17;100.00
42411;BME280;28056;51.112;0.984;2023-12-29T10:34:17;99871.58;;;9.48;100.00
42411;BME280;28056;51.112;0.984;2023-12-29T10:36:47;99867.85;;;8.54;100.00
42411;BME280;28056;51.112;0.984;2023-12-29T10:39:15;99868.77;;;8.82;100.00
42411;BME280;28056;51.112;0.984;2023-12-29T10:41:43;99861.62;;;9.18;100.00
42411;BME280;28056;51.112;0.984;2023-12-29T10:44:11;99862.21;;;8.51;100.00
42411;BME280;28056;51.112;0.984;2023-12-29T10:46:38;99860.22;;;9.33;100.00
42411;BME280;28056;51.112;0.984;2023-12-29T10:49:08;99861.15;;;9.40;100.00
42411;BME280;28056;51.112;0.984;2023-12-29T10:51:37;99863.49;;;8.97;100.00
42411;BME280;28056;51.112;0.984;2023-12-29T10:54:06;99863.35;;;10.31;100.00
42411;BME280;28056;51.112;0.984;2023-12-29T10:56:33;99861.62;;;10.22;100.00
42411;BME280;28056;51.112;0.984;2023-12-29T10:59:02;99859.69;;;9.73;100.00
42411;BME280;28056;51.112;0.984;2023-12-29T11:01:30;99851.64;;;9.95;100.00
42411;BME280;28056;51.112;0.984;2023-12-29T11:04:00;99848.66;;;10.42;100.00
42411;BME280;28056;51.112;0.984;2023-12-29T11:06:28;99841.25;;;9.14;100.00
42411;BME280;28056;51.112;0.984;2023-12-29T11:08:56;99845.24;;;9.22;100.00
42411;BME280;28056;51.112;0.984;2023-12-29T11:11:25;99838.45;;;9.28;100.00
42411;BME280;28056;51.112;0.984;2023-12-29T11:13:53;99828.05;;;8.70;100.00
42411;BME280;28056;51.112;0.984;2023-12-29T11:16:21;99835.92;;;10.60;100.00
42411;BME280;28056;51.112;0.984;2023-12-29T11:18:50;99821.99;;;9.38;100.00
42411;BME280;28056;51.112;0.984;2023-12-29T11:21:18;99822.39;;;9.35;100.00
42411;BME280;28056;51.112;0.984;2023-12-29T11:23:47;99823.02;;;9.55;100.00
42411;BME280;28056;51.112;0.984;2023-12-29T11:26:15;99814.09;;;8.99;100.00
42411;BME280;28056;51.112;0.984;2023-12-29T11:28:46;99811.34;;;9.05;100.00
42411;BME280;28056;51.112;0.984;2023-12-29T11:31:14;99802.70;;;9.52;100.00
42411;BME280;28056;51.112;0.984;2023-12-29T11:33:48;99798.44;;;9.51;100.00
42411;BME280;28056;51.112;0.984;2023-12-29T11:36:20;99786.55;;;10.15;100.00
42411;BME280;28056;51.112;0.984;2023-12-29T11:38:54;99797.63;;;9.96;100.00
42411;BME280;28056;51.112;0.984;2023-12-29T11:41:30;99786.44;;;9.40;100.00
42411;BME280;28056;51.112;0.984;2023-12-29T11:44:00;99781.32;;;9.90;100.00
42411;BME280;28056;51.112;0.984;2023-12-29T11:46:37;99768.87;;;10.14;100.00
42411;BME280;28056;51.112;0.984;2023-12-29T11:49:06;99767.84;;;9.99;100.00
42411;BME280;28056;51.112;0.984;2023-12-29T11:51:36;99759.40;;;9.97;100.00
42411;BME280;28056;51.112;0.984;2023-12-29T11:54:06;99750.51;;;10.15;100.00
42411;BME280;28056;51.112;0.984;2023-12-29T11:56:35;99755.08;;;9.06;100.00
42411;BME280;28056;51.112;0.984;2023-12-29T11:59:20;99748.87;;;9.62;100.00
42411;BME280;28056;51.112;0.984;2023-12-29T12:01:49;99753.18;;;10.04;100.00
42411;BME280;28056;51.112;0.984;2023-12-29T12:04:49;99755.51;;;10.98;100.00
42411;BME280;28056;51.112;0.984;2023-12-29T12:10:32;99757.32;;;10.25;100.00
42411;BME280;28056;51.112;0.984;2023-12-29T12:12:59;99758.18;;;9.82;100.00
42411;BME280;28056;51.112;0.984;2023-12-29T12:15:34;99750.18;;;9.91;100.00
42411;BME280;28056;51.112;0.984;2023-12-29T12:18:03;99759.16;;;10.70;100.00
42411;BME280;28056;51.112;0.984;2023-12-29T12:20:30;99760.96;;;9.26;100.00
42411;BME280;28056;51.112;0.984;2023-12-29T12:22:59;99766.99;;;9.82;100.00
42411;BME280;28056;51.112;0.984;2023-12-29T12:25:28;99772.50;;;10.40;100.00
42411;BME280;28056;51.112;0.984;2023-12-29T12:27:56;99770.28;;;9.47;100.00
42411;BME280;28056;51.112;0.984;2023-12-29T12:30:24;99763.96;;;10.57;100.00
42411;BME280;28056;51.112;0.984;2023-12-29T12:32:58;99766.80;;;10.06;100.00
42411;BME280;28056;51.112;0.984;2023-12-29T12:35:25;99762.23;;;9.02;100.00
42411;BME280;28056;51.112;0.984;2023-12-29T12:38:08;99760.54;;;9.45;100.00
42411;BME280;28056;51.112;0.984;2023-12-29T12:40:36;99749.90;;;8.72;100.00
42411;BME280;28056;51.112;0.984;2023-12-29T12:43:04;99754.68;;;8.78;100.00
42411;BME280;28056;51.112;0.984;2023-12-29T12:45:34;99749.94;;;8.85;100.00
42411;BME280;28056;51.112;0.984;2023-12-29T12:48:13;99753.66;;;9.08;100.00
42411;BME280;28056;51.112;0.984;2023-12-29T12:50:43;99752.68;;;9.20;100.00
42411;BME280;28056;51.112;0.984;2023-12-29T12:53:12;99754.97;;;9.37;100.00
42411;BME280;28056;51.112;0.984;2023-12-29T12:55:39;99761.08;;;9.45;100.00
42411;BME280;28056;51.112;0.984;2023-12-29T12:58:08;99740.43;;;9.50;100.00
42411;BME280;28056;51.112;0.984;2023-12-29T13:00:36;99747.02;;;9.51;100.00
42411;BME280;28056;51.112;0.984;2023-12-29T13:03:03;99738.95;;;9.63;100.00
42411;BME280;28056;51.112;0.984;2023-12-29T13:05:31;99721.30;;;10.34;100.00
42411;BME280;28056;51.112;0.984;2023-12-29T13:07:59;99729.66;;;9.72;100.00
42411;BME280;28056;51.112;0.984;2023-12-29T13:10:26;99727.00;;;9.87;100.00